Haslingfield, United Kingdom
Current Conditions -  °F | °C
As of 7:20 PM on Sunday 21 Dec 2014 (Local Time) from EGSC Reporting Station
Broken Clouds Broken Clouds  
Wind Chill: 50°   Ceiling: 1400
Heat Index: 50°   Visibility: 6mi
Dew Point: 46°   Wind: 24mph
Humidity: 87%   Direction: 220°SW
Pressure: 30.09"   Gusts: NA
Location:  52.15°N, 0.06°E
Report Text: EGSC 211920Z 22021KT 170V260 9999 BKN014 10/08 Q1019
Loading
Personal Weather Stations






























Interactive Weather Map New forecast layout! Learn more

10-Day Weather Forecast

Advertisements
Track Severe Weather on mobile